Time;durP1;ratioP1;P1;durP2;ratioP2;P2;SDS_P1;SDS_P2;PMS_P1;PMS_P2;Temp;Humidity;BMP_temperature;BMP_pressure;BME280_temperature;BME280_humidity;BME280_pressure;Samples;Min_cycle;Max_cycle;Signal;HPM_P1;HPM_P2
2023/05/17 00:02:13;;;;;;;9.90;3.30;;;;;;;;;;5080928;28;20468;-59
2023/05/17 00:04:39;;;;;;;6.40;2.87;;;;;;;;;;5087618;28;20529;-59
2023/05/17 00:07:06;;;;;;;8.67;3.60;;;;;;;;;;5081529;28;20483;-60
2023/05/17 00:09:32;;;;;;;5.03;3.50;;;;;;;;;;5084660;28;20456;-59
2023/05/17 00:11:58;;;;;;;4.23;3.10;;;;;;;;;;5081641;28;20476;-59
2023/05/17 00:14:27;;;;;;;5.90;3.17;;;;;;;;;;5083534;28;20964;-59
2023/05/17 00:16:53;;;;;;;5.50;3.30;;;;;;;;;;5083117;28;20472;-59
2023/05/17 00:19:20;;;;;;;5.87;3.03;;;;;;;;;;5092090;28;20479;-59
2023/05/17 00:21:46;;;;;;;11.30;4.43;;;;;;;;;;5086550;28;20507;-59
2023/05/17 00:24:13;;;;;;;5.87;3.53;;;;;;;;;;5081668;28;20460;-59
2023/05/17 00:26:39;;;;;;;7.80;2.93;;;;;;;;;;5081308;28;20520;-59
2023/05/17 00:29:06;;;;;;;6.50;3.43;;;;;;;;;;5080800;28;20444;-59
2023/05/17 00:31:33;;;;;;;7.03;3.60;;;;;;;;;;5083568;28;20513;-59
2023/05/17 00:34:00;;;;;;;9.73;3.63;;;;;;;;;;5083741;28;20492;-59
2023/05/17 00:36:26;;;;;;;12.53;3.80;;;;;;;;;;5081165;28;20510;-59
2023/05/17 00:38:53;;;;;;;8.20;3.77;;;;;;;;;;5087892;28;20469;-60
2023/05/17 00:41:19;;;;;;;6.60;2.90;;;;;;;;;;5081453;28;21077;-59
2023/05/17 00:43:46;;;;;;;7.30;3.60;;;;;;;;;;5088224;28;20497;-59
2023/05/17 00:46:12;;;;;;;5.47;3.67;;;;;;;;;;5083963;28;20487;-59
2023/05/17 00:48:40;;;;;;;9.00;3.90;;;;;;;;;;5085232;28;20460;-60
2023/05/17 00:51:07;;;;;;;8.50;4.20;;;;;;;;;;5080911;28;20514;-59
2023/05/17 00:53:35;;;;;;;11.50;3.80;;;;;;;;;;5080724;28;20864;-60
2023/05/17 00:56:02;;;;;;;11.87;3.57;;;;;;;;;;5082096;28;20490;-60
2023/05/17 00:58:29;;;;;;;11.20;3.80;;;;;;;;;;5081669;28;21092;-60
2023/05/17 01:00:55;;;;;;;9.80;3.90;;;;;;;;;;5092599;28;20476;-60
2023/05/17 01:03:22;;;;;;;9.70;3.70;;;;;;;;;;5088814;28;20558;-59
2023/05/17 01:05:50;;;;;;;15.77;4.40;;;;;;;;;;5081811;28;21036;-60
2023/05/17 01:08:17;;;;;;;8.40;3.10;;;;;;;;;;5086537;28;20837;-59
2023/05/17 01:10:49;;;;;;;9.03;3.90;;;;;;;;;;5083508;28;20536;-59
2023/05/17 01:13:19;;;;;;;6.40;3.30;;;;;;;;;;5093664;28;20455;-60
2023/05/17 01:15:47;;;;;;;5.93;3.17;;;;;;;;;;5085828;28;20466;-59
2023/05/17 01:18:17;;;;;;;13.47;4.60;;;;;;;;;;5079791;28;20548;-59
2023/05/17 01:20:45;;;;;;;6.27;3.70;;;;;;;;;;5087018;28;20478;-59
2023/05/17 01:23:24;;;;;;;11.90;4.57;;;;;;;;;;5084374;28;20520;-59
2023/05/17 01:25:54;;;;;;;9.40;3.87;;;;;;;;;;5080441;28;20472;-60
2023/05/17 01:28:23;;;;;;;6.60;3.77;;;;;;;;;;5091913;28;21247;-59
2023/05/17 01:30:50;;;;;;;10.10;3.90;;;;;;;;;;5089582;28;20498;-59
2023/05/17 01:33:18;;;;;;;6.97;4.13;;;;;;;;;;5094110;28;20463;-59
2023/05/17 01:35:44;;;;;;;16.53;4.47;;;;;;;;;;5088368;28;20472;-60
2023/05/17 01:38:11;;;;;;;6.20;4.30;;;;;;;;;;5087117;28;20447;-60
2023/05/17 01:40:40;;;;;;;9.40;4.03;;;;;;;;;;5083259;28;20472;-60
2023/05/17 01:43:12;;;;;;;8.70;4.53;;;;;;;;;;5079352;28;20473;-60
2023/05/17 01:45:43;;;;;;;12.70;4.30;;;;;;;;;;5081601;28;20475;-60
2023/05/17 01:48:13;;;;;;;10.10;4.20;;;;;;;;;;5085838;28;20479;-60
2023/05/17 01:50:40;;;;;;;9.13;4.30;;;;;;;;;;5081917;28;20489;-60
2023/05/17 01:53:08;;;;;;;13.57;4.27;;;;;;;;;;5094565;28;20455;-60
2023/05/17 01:55:41;;;;;;;7.77;4.33;;;;;;;;;;5078718;28;20475;-60
2023/05/17 01:58:07;;;;;;;15.80;4.10;;;;;;;;;;5080800;28;20479;-59
2023/05/17 02:00:34;;;;;;;14.13;5.63;;;;;;;;;;5084244;28;20489;-60
2023/05/17 02:03:02;;;;;;;14.00;5.47;;;;;;;;;;5083229;28;20456;-59
2023/05/17 02:05:29;;;;;;;11.63;5.60;;;;;;;;;;5080386;28;20463;-59
2023/05/17 02:07:55;;;;;;;11.97;4.00;;;;;;;;;;5080548;28;20475;-60
2023/05/17 02:10:22;;;;;;;9.03;4.07;;;;;;;;;;5078960;28;21174;-59
2023/05/17 02:12:49;;;;;;;11.10;4.50;;;;;;;;;;5086126;28;20470;-59
2023/05/17 02:15:15;;;;;;;21.10;4.57;;;;;;;;;;5087250;28;20459;-59
2023/05/17 02:17:42;;;;;;;12.80;3.87;;;;;;;;;;5080121;28;20513;-60
2023/05/17 02:20:10;;;;;;;14.47;5.43;;;;;;;;;;5081899;28;20520;-60
2023/05/17 02:22:37;;;;;;;12.57;5.00;;;;;;;;;;5081542;28;20451;-59
2023/05/17 02:25:03;;;;;;;11.37;4.37;;;;;;;;;;5081867;28;20443;-59
2023/05/17 02:27:30;;;;;;;10.53;4.83;;;;;;;;;;5094632;28;20969;-60
2023/05/17 02:29:56;;;;;;;10.93;4.60;;;;;;;;;;5082307;28;20459;-59
2023/05/17 02:32:23;;;;;;;7.47;4.40;;;;;;;;;;5083115;28;20518;-59
2023/05/17 02:34:49;;;;;;;12.97;5.37;;;;;;;;;;5090970;28;20520;-59
2023/05/17 02:37:17;;;;;;;9.30;4.77;;;;;;;;;;5095783;28;20999;-59
2023/05/17 02:39:44;;;;;;;15.13;4.70;;;;;;;;;;5088921;28;20509;-59
2023/05/17 02:42:10;;;;;;;15.70;5.00;;;;;;;;;;5085955;28;20466;-59
2023/05/17 02:44:37;;;;;;;14.77;5.43;;;;;;;;;;5095953;28;20531;-59
2023/05/17 02:47:03;;;;;;;11.30;5.27;;;;;;;;;;5088498;28;20478;-59
2023/05/17 02:49:30;;;;;;;7.93;4.23;;;;;;;;;;5083984;28;20464;-59
2023/05/17 02:51:56;;;;;;;11.53;4.90;;;;;;;;;;5085518;28;20487;-59
2023/05/17 02:54:24;;;;;;;14.57;4.73;;;;;;;;;;5096634;28;20458;-59
2023/05/17 02:56:50;;;;;;;17.70;5.20;;;;;;;;;;5082795;28;20480;-59
2023/05/17 02:59:17;;;;;;;14.30;4.97;;;;;;;;;;5084821;28;20448;-59
2023/05/17 03:01:43;;;;;;;8.93;4.13;;;;;;;;;;5089825;28;20502;-59
2023/05/17 03:04:10;;;;;;;16.30;5.20;;;;;;;;;;5083887;28;20521;-59
2023/05/17 03:06:37;;;;;;;14.20;5.10;;;;;;;;;;5082787;28;20480;-59
2023/05/17 03:09:04;;;;;;;19.43;4.80;;;;;;;;;;5084145;28;20471;-60
2023/05/17 03:11:32;;;;;;;21.30;5.47;;;;;;;;;;5081668;28;20471;-60
2023/05/17 03:13:58;;;;;;;12.27;5.07;;;;;;;;;;5082835;28;20463;-60
2023/05/17 03:16:25;;;;;;;20.17;6.43;;;;;;;;;;5088219;28;20497;-60
2023/05/17 03:18:51;;;;;;;13.93;5.30;;;;;;;;;;5102785;28;20459;-59
2023/05/17 03:21:18;;;;;;;15.07;5.07;;;;;;;;;;5090008;28;20474;-60
2023/05/17 03:23:44;;;;;;;13.37;5.07;;;;;;;;;;5083682;28;20460;-60
2023/05/17 03:26:11;;;;;;;12.87;5.83;;;;;;;;;;5094667;28;20467;-60
2023/05/17 03:28:38;;;;;;;13.83;5.50;;;;;;;;;;5101080;28;20471;-59
2023/05/17 03:31:05;;;;;;;16.40;5.60;;;;;;;;;;5082609;28;20476;-60
2023/05/17 03:33:32;;;;;;;10.33;5.80;;;;;;;;;;5082650;28;20460;-60
2023/05/17 03:35:58;;;;;;;18.47;6.53;;;;;;;;;;5101601;28;20478;-60
2023/05/17 03:38:25;;;;;;;13.63;5.40;;;;;;;;;;5090501;28;20445;-60
2023/05/17 03:40:52;;;;;;;11.23;6.07;;;;;;;;;;5089805;28;20474;-60
2023/05/17 03:43:18;;;;;;;22.60;6.30;;;;;;;;;;5084836;28;20452;-59
2023/05/17 03:45:46;;;;;;;19.23;6.70;;;;;;;;;;5094474;28;20475;-60
2023/05/17 03:48:12;;;;;;;14.60;6.77;;;;;;;;;;5084263;28;20545;-59
2023/05/17 03:50:39;;;;;;;12.70;5.97;;;;;;;;;;5082790;28;20467;-60
2023/05/17 03:53:06;;;;;;;13.03;6.03;;;;;;;;;;5085598;28;20967;-60
2023/05/17 03:55:32;;;;;;;13.93;6.20;;;;;;;;;;5085503;28;20472;-60
2023/05/17 03:57:59;;;;;;;15.30;6.23;;;;;;;;;;5096863;28;20451;-59
2023/05/17 04:00:25;;;;;;;11.00;5.80;;;;;;;;;;5082424;28;20833;-60
2023/05/17 04:02:53;;;;;;;18.73;5.53;;;;;;;;;;5082441;28;20478;-59
2023/05/17 04:05:20;;;;;;;12.73;5.40;;;;;;;;;;5088232;28;20464;-59
2023/05/17 04:07:46;;;;;;;16.30;5.57;;;;;;;;;;5083584;28;20474;-59
2023/05/17 04:10:13;;;;;;;24.80;8.63;;;;;;;;;;5091387;28;20521;-59
2023/05/17 04:12:40;;;;;;;21.67;6.73;;;;;;;;;;5091664;28;20451;-60
2023/05/17 04:15:07;;;;;;;17.97;6.37;;;;;;;;;;5090084;28;20467;-59
2023/05/17 04:17:33;;;;;;;11.07;5.23;;;;;;;;;;5078114;28;20460;-59
2023/05/17 04:20:01;;;;;;;11.13;5.40;;;;;;;;;;5082554;28;20486;-60
2023/05/17 04:22:28;;;;;;;14.20;5.80;;;;;;;;;;5081839;28;20513;-60
2023/05/17 04:24:54;;;;;;;17.53;6.50;;;;;;;;;;5083168;28;20460;-60
2023/05/17 04:27:22;;;;;;;12.67;5.40;;;;;;;;;;5088334;28;20471;-60
2023/05/17 04:29:48;;;;;;;11.87;5.20;;;;;;;;;;5089985;28;20820;-60
2023/05/17 04:32:15;;;;;;;13.53;5.27;;;;;;;;;;5082797;28;20511;-59
2023/05/17 04:34:42;;;;;;;16.60;5.70;;;;;;;;;;5076672;28;20687;-59
2023/05/17 04:37:10;;;;;;;12.80;5.70;;;;;;;;;;5081908;28;20498;-59
2023/05/17 04:39:36;;;;;;;17.67;5.40;;;;;;;;;;5084400;28;20456;-60
2023/05/17 04:42:03;;;;;;;12.03;5.57;;;;;;;;;;5078257;28;20483;-60
2023/05/17 04:44:30;;;;;;;14.40;5.20;;;;;;;;;;5087599;28;20494;-60
2023/05/17 04:46:56;;;;;;;11.63;5.80;;;;;;;;;;5078384;28;20496;-61
2023/05/17 04:49:23;;;;;;;15.17;4.90;;;;;;;;;;5084748;28;20486;-60
2023/05/17 04:51:50;;;;;;;10.90;4.93;;;;;;;;;;5089250;28;20967;-60
2023/05/17 04:54:18;;;;;;;13.53;5.60;;;;;;;;;;5091038;28;20460;-61
2023/05/17 04:56:45;;;;;;;10.33;4.80;;;;;;;;;;5090772;28;20526;-60
2023/05/17 04:59:11;;;;;;;15.33;5.60;;;;;;;;;;5093632;28;20447;-60
2023/05/17 05:01:38;;;;;;;11.50;5.40;;;;;;;;;;5080419;28;20504;-60
2023/05/17 05:04:05;;;;;;;10.53;4.43;;;;;;;;;;5087230;28;20458;-60
2023/05/17 05:06:32;;;;;;;12.57;5.43;;;;;;;;;;5086431;28;20487;-60
2023/05/17 05:08:58;;;;;;;12.10;4.00;;;;;;;;;;5086044;28;20579;-60
2023/05/17 05:11:26;;;;;;;11.63;4.50;;;;;;;;;;5079305;28;20487;-60
2023/05/17 05:13:53;;;;;;;16.47;7.50;;;;;;;;;;5078930;28;20506;-60
2023/05/17 05:16:19;;;;;;;12.90;5.30;;;;;;;;;;5078644;28;20529;-62
2023/05/17 05:18:46;;;;;;;14.53;4.90;;;;;;;;;;5084016;28;20505;-63
2023/05/17 05:21:12;;;;;;;12.30;5.50;;;;;;;;;;5078026;28;20533;-63
2023/05/17 05:23:39;;;;;;;16.60;4.90;;;;;;;;;;5071563;28;20510;-62
2023/05/17 05:26:05;;;;;;;19.73;6.20;;;;;;;;;;5080527;28;20480;-62
2023/05/17 05:37:14;;;;;;;16.20;6.10;;;;;;;;;;5110686;27;20359;-62
2023/05/17 05:39:41;;;;;;;25.20;7.70;;;;;;;;;;5096835;28;20884;-62
2023/05/17 05:42:07;;;;;;;20.57;6.80;;;;;;;;;;5076128;28;20505;-62
2023/05/17 05:44:34;;;;;;;18.53;6.00;;;;;;;;;;5085165;28;20478;-62
2023/05/17 05:47:00;;;;;;;14.60;5.13;;;;;;;;;;5085626;28;20896;-62
2023/05/17 05:49:27;;;;;;;13.43;5.23;;;;;;;;;;5074493;28;20514;-62
2023/05/17 05:51:53;;;;;;;19.90;4.83;;;;;;;;;;5076493;28;20996;-63
2023/05/17 05:54:21;;;;;;;16.73;5.80;;;;;;;;;;5076172;28;20448;-62
2023/05/17 05:56:48;;;;;;;16.13;5.90;;;;;;;;;;5073724;28;20468;-62
2023/05/17 05:59:14;;;;;;;12.13;5.13;;;;;;;;;;5077111;28;20444;-62
2023/05/17 06:01:41;;;;;;;15.50;5.13;;;;;;;;;;5058971;28;20476;-62
2023/05/17 06:04:07;;;;;;;18.73;5.37;;;;;;;;;;5068563;28;20474;-62
2023/05/17 06:06:34;;;;;;;17.10;4.43;;;;;;;;;;5088372;28;20539;-61
2023/05/17 06:09:00;;;;;;;13.67;5.57;;;;;;;;;;5097309;28;20574;-62
2023/05/17 06:11:29;;;;;;;15.00;5.00;;;;;;;;;;5089243;28;20525;-62
2023/05/17 06:13:55;;;;;;;14.83;4.87;;;;;;;;;;5089496;28;20462;-63
2023/05/17 06:16:21;;;;;;;13.60;3.80;;;;;;;;;;5092086;28;20509;-62
2023/05/17 06:18:48;;;;;;;11.83;4.67;;;;;;;;;;5094852;28;20493;-62
2023/05/17 06:21:16;;;;;;;13.53;4.83;;;;;;;;;;5066224;28;20523;-62
2023/05/17 06:23:42;;;;;;;12.33;4.23;;;;;;;;;;5055842;28;20468;-62
2023/05/17 06:26:10;;;;;;;19.23;5.07;;;;;;;;;;5054996;28;20480;-62
2023/05/17 06:28:38;;;;;;;15.07;4.70;;;;;;;;;;5055951;28;20478;-62
2023/05/17 06:31:04;;;;;;;13.40;4.17;;;;;;;;;;5063782;28;20506;-63
2023/05/17 06:33:31;;;;;;;13.53;3.70;;;;;;;;;;5076060;28;20456;-62
2023/05/17 06:35:57;;;;;;;17.20;3.70;;;;;;;;;;5074841;28;20522;-62
2023/05/17 06:38:24;;;;;;;11.13;3.27;;;;;;;;;;5076378;28;20471;-61
2023/05/17 06:40:51;;;;;;;10.00;3.63;;;;;;;;;;5082115;28;20988;-61
2023/05/17 06:43:18;;;;;;;9.83;3.90;;;;;;;;;;5077788;28;20451;-61
2023/05/17 06:45:45;;;;;;;11.37;3.60;;;;;;;;;;5077149;28;20476;-61
2023/05/17 06:48:12;;;;;;;11.60;4.60;;;;;;;;;;5053646;28;20457;-61
2023/05/17 06:50:38;;;;;;;12.27;4.13;;;;;;;;;;5052868;28;20491;-62
2023/05/17 06:53:05;;;;;;;12.10;4.70;;;;;;;;;;5069035;28;20461;-61
2023/05/17 06:55:31;;;;;;;13.97;3.67;;;;;;;;;;5062323;28;20533;-62
2023/05/17 06:57:58;;;;;;;11.23;5.03;;;;;;;;;;5068956;28;20452;-62
2023/05/17 07:00:25;;;;;;;13.90;3.20;;;;;;;;;;5064997;28;20495;-62
2023/05/17 07:02:53;;;;;;;14.33;2.87;;;;;;;;;;5041908;28;20454;-61
2023/05/17 07:05:22;;;;;;;13.30;3.10;;;;;;;;;;5045891;28;20510;-62
2023/05/17 07:07:49;;;;;;;12.17;3.53;;;;;;;;;;5042554;28;20458;-62
2023/05/17 07:10:15;;;;;;;11.47;2.87;;;;;;;;;;5042553;28;20477;-62
2023/05/17 07:12:42;;;;;;;10.77;3.57;;;;;;;;;;5062044;28;21556;-62
2023/05/17 07:15:09;;;;;;;10.20;3.40;;;;;;;;;;5061836;28;20460;-62
2023/05/17 07:17:35;;;;;;;12.63;4.30;;;;;;;;;;5045759;28;20493;-61
2023/05/17 07:20:04;;;;;;;15.23;2.57;;;;;;;;;;5044599;28;20515;-62
2023/05/17 07:22:31;;;;;;;12.90;3.87;;;;;;;;;;5054113;28;20473;-62
2023/05/17 07:24:57;;;;;;;10.50;2.90;;;;;;;;;;5041255;28;20473;-60
2023/05/17 07:27:24;;;;;;;12.20;2.63;;;;;;;;;;5041090;28;20477;-61
2023/05/17 07:29:51;;;;;;;14.50;4.60;;;;;;;;;;5042707;28;20517;-61
2023/05/17 07:32:17;;;;;;;9.73;3.00;;;;;;;;;;5040924;28;21068;-61
2023/05/17 07:34:44;;;;;;;11.80;3.10;;;;;;;;;;5040639;28;20458;-62
2023/05/17 07:37:12;;;;;;;5.80;2.87;;;;;;;;;;5041539;28;20486;-61
2023/05/17 07:39:38;;;;;;;11.90;3.50;;;;;;;;;;5045397;28;20440;-62
2023/05/17 07:42:05;;;;;;;8.93;2.90;;;;;;;;;;5066264;28;20949;-62
2023/05/17 07:44:32;;;;;;;11.17;3.80;;;;;;;;;;5082106;28;20471;-61
2023/05/17 07:46:58;;;;;;;11.43;3.13;;;;;;;;;;5081123;28;20468;-61
2023/05/17 07:49:25;;;;;;;5.90;2.07;;;;;;;;;;5080808;28;20460;-62
2023/05/17 07:51:52;;;;;;;9.43;2.60;;;;;;;;;;5081858;28;20507;-62
2023/05/17 07:54:26;;;;;;;7.37;2.77;;;;;;;;;;5081419;28;20468;-61
2023/05/17 07:56:54;;;;;;;13.03;4.17;;;;;;;;;;5078640;28;20476;-63
2023/05/17 07:59:20;;;;;;;12.63;3.30;;;;;;;;;;5079448;28;20486;-62
2023/05/17 08:01:47;;;;;;;7.33;2.93;;;;;;;;;;5080452;28;20467;-62
2023/05/17 08:04:13;;;;;;;10.40;2.63;;;;;;;;;;5079998;28;20464;-61
2023/05/17 08:06:40;;;;;;;9.77;3.60;;;;;;;;;;5089887;28;20480;-62
2023/05/17 08:09:07;;;;;;;9.50;3.50;;;;;;;;;;5082902;28;20452;-62
2023/05/17 08:11:35;;;;;;;10.53;4.30;;;;;;;;;;5078968;28;21024;-62
2023/05/17 08:14:01;;;;;;;8.60;2.80;;;;;;;;;;5090714;28;20455;-63
2023/05/17 08:16:28;;;;;;;14.73;3.77;;;;;;;;;;5081261;28;20484;-62
2023/05/17 08:18:54;;;;;;;10.60;2.67;;;;;;;;;;5079482;28;20486;-62
2023/05/17 08:21:21;;;;;;;6.53;3.50;;;;;;;;;;5080231;28;20551;-62
2023/05/17 08:23:48;;;;;;;10.20;3.10;;;;;;;;;;5080491;28;20452;-61
2023/05/17 08:26:14;;;;;;;11.80;2.97;;;;;;;;;;5082253;28;20476;-61
2023/05/17 08:28:42;;;;;;;7.53;2.57;;;;;;;;;;5080657;28;20440;-62
2023/05/17 08:31:10;;;;;;;7.90;2.33;;;;;;;;;;5079646;28;20484;-62
2023/05/17 08:33:37;;;;;;;10.77;2.53;;;;;;;;;;5087034;28;20460;-61
2023/05/17 08:36:06;;;;;;;6.53;2.43;;;;;;;;;;5080278;28;20511;-62
2023/05/17 08:38:34;;;;;;;8.10;2.33;;;;;;;;;;5080789;28;20454;-61
2023/05/17 08:41:01;;;;;;;14.63;3.17;;;;;;;;;;5082836;28;20506;-61
2023/05/17 08:43:29;;;;;;;18.77;4.40;;;;;;;;;;5087245;28;20531;-61
2023/05/17 08:45:58;;;;;;;12.60;3.43;;;;;;;;;;5078012;28;20999;-61
2023/05/17 08:48:25;;;;;;;8.00;2.80;;;;;;;;;;5079836;28;20456;-61
2023/05/17 08:50:53;;;;;;;9.10;2.70;;;;;;;;;;5080013;28;20480;-61
2023/05/17 08:53:19;;;;;;;12.37;3.13;;;;;;;;;;5076825;28;20523;-62
2023/05/17 08:55:47;;;;;;;6.77;2.50;;;;;;;;;;5077875;28;20499;-61
2023/05/17 08:58:14;;;;;;;10.33;3.27;;;;;;;;;;5080240;28;20484;-61
2023/05/17 09:00:41;;;;;;;7.93;2.90;;;;;;;;;;5085191;28;20464;-62
2023/05/17 09:03:09;;;;;;;9.40;2.57;;;;;;;;;;5078866;28;20452;-61
2023/05/17 09:05:36;;;;;;;7.53;2.70;;;;;;;;;;5079350;28;20476;-63
2023/05/17 09:08:03;;;;;;;14.33;2.97;;;;;;;;;;5086940;28;20452;-60
2023/05/17 09:10:30;;;;;;;10.47;3.70;;;;;;;;;;5084329;28;20550;-62
2023/05/17 09:12:56;;;;;;;10.43;2.83;;;;;;;;;;5085517;28;20444;-62
2023/05/17 09:15:25;;;;;;;8.07;2.30;;;;;;;;;;5084428;28;20870;-62
2023/05/17 09:17:52;;;;;;;10.40;2.70;;;;;;;;;;5081297;28;20486;-62
2023/05/17 09:20:24;;;;;;;7.90;2.57;;;;;;;;;;5081638;28;20451;-61
2023/05/17 09:22:51;;;;;;;12.80;2.70;;;;;;;;;;5080593;28;20471;-61
2023/05/17 09:25:19;;;;;;;10.10;3.20;;;;;;;;;;5079333;28;20620;-61
2023/05/17 09:27:45;;;;;;;9.27;3.17;;;;;;;;;;5085757;28;20451;-62
2023/05/17 09:30:12;;;;;;;13.23;3.70;;;;;;;;;;5082814;28;20456;-61
2023/05/17 09:32:43;;;;;;;13.90;2.90;;;;;;;;;;5078445;28;20448;-62
2023/05/17 09:35:10;;;;;;;7.27;2.37;;;;;;;;;;5079857;28;20554;-62
2023/05/17 09:37:38;;;;;;;8.30;2.93;;;;;;;;;;5079217;28;20507;-61
2023/05/17 09:40:06;;;;;;;12.70;3.40;;;;;;;;;;5078904;28;21053;-62
2023/05/17 09:42:35;;;;;;;11.30;2.93;;;;;;;;;;5077576;28;20490;-62
2023/05/17 09:45:02;;;;;;;9.27;3.10;;;;;;;;;;5078468;28;20456;-61
2023/05/17 09:47:29;;;;;;;8.87;3.47;;;;;;;;;;5084264;28;20476;-61
2023/05/17 09:49:56;;;;;;;10.30;2.87;;;;;;;;;;5084520;28;20447;-62
2023/05/17 09:52:23;;;;;;;7.93;2.37;;;;;;;;;;5082562;28;20514;-61
2023/05/17 09:54:54;;;;;;;7.87;2.97;;;;;;;;;;5085087;28;20509;-62
2023/05/17 09:57:21;;;;;;;11.77;3.33;;;;;;;;;;5079532;28;20507;-61
2023/05/17 09:59:48;;;;;;;10.13;3.70;;;;;;;;;;5079417;28;20555;-61
2023/05/17 10:02:21;;;;;;;10.27;3.10;;;;;;;;;;5077615;28;20984;-62
2023/05/17 10:04:50;;;;;;;7.03;2.97;;;;;;;;;;5078826;28;20475;-62
2023/05/17 10:07:18;;;;;;;8.90;2.70;;;;;;;;;;5078482;28;20495;-62
2023/05/17 10:09:46;;;;;;;8.20;2.53;;;;;;;;;;5074019;28;20448;-59
2023/05/17 10:12:16;;;;;;;8.37;3.00;;;;;;;;;;5068827;28;20509;-59
2023/05/17 10:14:43;;;;;;;16.43;4.53;;;;;;;;;;5078892;28;20459;-60
2023/05/17 10:17:10;;;;;;;12.03;3.40;;;;;;;;;;5077499;28;20480;-59
2023/05/17 10:19:37;;;;;;;12.53;4.40;;;;;;;;;;5080235;28;20459;-60
2023/05/17 10:22:03;;;;;;;12.80;3.20;;;;;;;;;;5084718;28;20514;-59
2023/05/17 10:24:31;;;;;;;14.87;3.80;;;;;;;;;;5081428;28;20456;-59
2023/05/17 10:26:58;;;;;;;12.83;4.20;;;;;;;;;;5086428;28;21308;-60
2023/05/17 10:29:26;;;;;;;12.07;2.90;;;;;;;;;;5082357;28;20456;-59
2023/05/17 10:31:52;;;;;;;12.30;3.93;;;;;;;;;;5080969;28;20487;-60
2023/05/17 10:34:19;;;;;;;13.90;3.30;;;;;;;;;;5082006;28;20540;-59
2023/05/17 10:36:46;;;;;;;11.50;3.10;;;;;;;;;;5081702;28;21130;-59
2023/05/17 10:39:12;;;;;;;16.33;4.73;;;;;;;;;;5074265;28;20517;-59
2023/05/17 10:41:43;;;;;;;15.73;3.53;;;;;;;;;;5082300;28;20479;-59
2023/05/17 10:44:13;;;;;;;15.00;3.00;;;;;;;;;;5081620;28;21062;-59
2023/05/17 10:46:41;;;;;;;12.23;3.30;;;;;;;;;;5082894;28;20537;-59
2023/05/17 10:49:07;;;;;;;14.33;3.23;;;;;;;;;;5081199;28;20865;-59
2023/05/17 10:51:35;;;;;;;11.87;3.03;;;;;;;;;;5082362;28;20483;-59
2023/05/17 10:54:08;;;;;;;10.40;3.20;;;;;;;;;;5081218;28;20456;-60
2023/05/17 10:56:35;;;;;;;14.87;3.60;;;;;;;;;;5081916;28;20484;-60
2023/05/17 10:59:18;;;;;;;11.40;2.87;;;;;;;;;;5092608;28;20454;-59
2023/05/17 11:01:53;;;;;;;13.50;4.43;;;;;;;;;;5077224;28;20478;-59
2023/05/17 11:04:20;;;;;;;7.90;2.90;;;;;;;;;;5081691;28;20459;-60
2023/05/17 11:06:46;;;;;;;12.57;3.13;;;;;;;;;;5081406;28;20483;-58
2023/05/17 11:09:16;;;;;;;10.03;3.33;;;;;;;;;;5088498;28;20452;-58
2023/05/17 11:11:58;;;;;;;14.57;3.00;;;;;;;;;;5081988;28;20506;-58
2023/05/17 11:14:25;;;;;;;8.77;2.90;;;;;;;;;;5085053;28;20459;-58
2023/05/17 11:16:56;;;;;;;20.23;3.60;;;;;;;;;;5083113;28;21037;-58
2023/05/17 11:19:23;;;;;;;8.60;2.90;;;;;;;;;;5082078;28;20451;-58
2023/05/17 11:21:49;;;;;;;14.00;3.93;;;;;;;;;;5081849;28;20479;-58
2023/05/17 11:24:19;;;;;;;12.83;2.90;;;;;;;;;;5083906;28;20463;-58
2023/05/17 11:26:46;;;;;;;7.63;2.70;;;;;;;;;;5082382;28;20480;-58
2023/05/17 11:29:13;;;;;;;14.43;4.27;;;;;;;;;;5083505;28;20448;-59
2023/05/17 11:31:43;;;;;;;12.43;3.20;;;;;;;;;;5080647;28;20495;-58
2023/05/17 11:34:11;;;;;;;14.87;3.27;;;;;;;;;;5081230;28;20505;-58
2023/05/17 11:36:48;;;;;;;11.97;3.60;;;;;;;;;;5081447;28;20459;-58
2023/05/17 11:39:16;;;;;;;9.53;3.40;;;;;;;;;;5081172;28;20925;-58
2023/05/17 11:41:48;;;;;;;13.23;3.07;;;;;;;;;;5086032;28;20468;-58
2023/05/17 11:44:15;;;;;;;8.90;3.47;;;;;;;;;;5083578;28;20470;-58
2023/05/17 11:46:43;;;;;;;12.50;4.10;;;;;;;;;;5081697;28;20476;-58
2023/05/17 11:49:12;;;;;;;9.57;3.57;;;;;;;;;;5080169;28;20517;-57
2023/05/17 11:51:38;;;;;;;8.73;3.33;;;;;;;;;;5083548;28;20476;-58
2023/05/17 11:54:07;;;;;;;13.30;3.60;;;;;;;;;;5092871;28;20447;-58
2023/05/17 11:56:35;;;;;;;11.17;3.23;;;;;;;;;;5096289;28;20489;-58
2023/05/17 11:59:01;;;;;;;10.90;3.37;;;;;;;;;;5091900;28;20819;-59
2023/05/17 12:01:28;;;;;;;10.63;3.43;;;;;;;;;;5087536;28;20483;-58
2023/05/17 12:03:57;;;;;;;10.47;3.10;;;;;;;;;;5087362;28;20833;-59
2023/05/17 12:06:27;;;;;;;9.63;3.20;;;;;;;;;;5080978;28;20550;-58
2023/05/17 12:08:54;;;;;;;10.73;3.17;;;;;;;;;;5068427;28;20472;-58
2023/05/17 12:11:22;;;;;;;13.70;3.47;;;;;;;;;;5080739;28;20962;-58
2023/05/17 12:13:50;;;;;;;10.47;4.17;;;;;;;;;;5081217;28;20460;-58
2023/05/17 12:16:20;;;;;;;11.43;3.23;;;;;;;;;;5079638;28;20825;-58
2023/05/17 12:18:48;;;;;;;10.83;3.10;;;;;;;;;;5080643;28;20460;-59
2023/05/17 12:21:15;;;;;;;11.13;3.00;;;;;;;;;;5080660;28;20467;-58
2023/05/17 12:23:44;;;;;;;20.87;4.03;;;;;;;;;;5080825;28;20460;-58
2023/05/17 12:26:13;;;;;;;14.70;4.23;;;;;;;;;;5085881;28;20472;-58
2023/05/17 12:28:40;;;;;;;14.83;3.90;;;;;;;;;;5072233;28;20842;-58
2023/05/17 12:31:08;;;;;;;10.27;2.87;;;;;;;;;;5079081;28;20492;-59
2023/05/17 12:33:36;;;;;;;12.53;3.40;;;;;;;;;;5080058;28;20456;-59
2023/05/17 12:43:04;;;;;;;10.50;2.70;;;;;;;;;;5094407;28;20565;-58
2023/05/17 12:45:31;;;;;;;9.50;3.10;;;;;;;;;;5089283;27;20465;-58
2023/05/17 12:47:59;;;;;;;10.57;2.87;;;;;;;;;;5045901;28;20630;-58
2023/05/17 12:50:26;;;;;;;5.70;2.57;;;;;;;;;;5047231;28;20559;-59
2023/05/17 12:52:53;;;;;;;10.67;3.23;;;;;;;;;;5053918;28;20511;-59
2023/05/17 12:55:20;;;;;;;10.03;3.00;;;;;;;;;;5051090;28;20533;-59
2023/05/17 12:57:50;;;;;;;15.03;4.23;;;;;;;;;;5056945;28;20464;-59
2023/05/17 13:00:18;;;;;;;13.77;4.07;;;;;;;;;;5053890;28;20475;-58
2023/05/17 13:02:45;;;;;;;14.60;4.40;;;;;;;;;;5050894;28;20453;-58
2023/05/17 13:05:17;;;;;;;13.13;4.20;;;;;;;;;;5054261;28;20488;-58
2023/05/17 13:07:44;;;;;;;10.17;3.33;;;;;;;;;;5058584;28;20463;-59
2023/05/17 13:10:21;;;;;;;25.23;3.63;;;;;;;;;;5054527;28;20450;-58
2023/05/17 13:12:54;;;;;;;9.70;3.33;;;;;;;;;;5066991;28;20523;-58
2023/05/17 13:15:26;;;;;;;9.77;3.40;;;;;;;;;;5061310;28;20495;-58
2023/05/17 13:17:52;;;;;;;14.20;3.77;;;;;;;;;;5045263;28;20526;-58
2023/05/17 13:20:19;;;;;;;17.50;3.97;;;;;;;;;;5056367;28;20449;-59
2023/05/17 13:22:46;;;;;;;11.30;3.83;;;;;;;;;;5070129;28;21149;-58
2023/05/17 13:25:12;;;;;;;10.67;3.73;;;;;;;;;;5055117;28;20457;-58
2023/05/17 13:27:43;;;;;;;18.87;4.93;;;;;;;;;;5054026;28;20453;-57
2023/05/17 13:30:10;;;;;;;4.90;2.60;;;;;;;;;;5060637;28;20472;-58
2023/05/17 13:32:38;;;;;;;11.13;3.83;;;;;;;;;;5051338;28;20488;-58
2023/05/17 13:35:05;;;;;;;11.63;4.10;;;;;;;;;;5061351;28;20465;-58
2023/05/17 13:37:32;;;;;;;12.47;3.47;;;;;;;;;;5055577;28;20471;-59
2023/05/17 13:39:59;;;;;;;12.03;2.93;;;;;;;;;;5045692;28;20865;-59
2023/05/17 13:42:25;;;;;;;7.00;2.77;;;;;;;;;;5047146;28;20485;-59
2023/05/17 13:44:52;;;;;;;13.20;3.80;;;;;;;;;;5054428;28;20491;-59
2023/05/17 13:47:18;;;;;;;9.93;3.23;;;;;;;;;;5049881;28;20489;-59
2023/05/17 13:49:46;;;;;;;13.40;4.87;;;;;;;;;;5060298;28;20452;-59
2023/05/17 13:52:13;;;;;;;16.03;4.70;;;;;;;;;;5056301;28;20485;-57
2023/05/17 13:54:39;;;;;;;9.23;3.30;;;;;;;;;;5037216;28;20485;-59
2023/05/17 13:57:06;;;;;;;10.50;3.70;;;;;;;;;;5049199;28;20492;-58
2023/05/17 13:59:33;;;;;;;8.87;3.07;;;;;;;;;;5031513;28;20756;-57
2023/05/17 14:02:00;;;;;;;8.90;3.30;;;;;;;;;;5040021;28;20482;-58
2023/05/17 14:04:26;;;;;;;9.80;3.30;;;;;;;;;;5041865;28;20464;-58
2023/05/17 14:06:54;;;;;;;9.90;4.33;;;;;;;;;;5036459;28;20573;-58
2023/05/17 14:09:21;;;;;;;9.53;3.87;;;;;;;;;;5032621;28;20546;-59
2023/05/17 14:11:47;;;;;;;11.30;3.27;;;;;;;;;;5048350;28;20477;-58
2023/05/17 14:14:14;;;;;;;11.43;3.70;;;;;;;;;;5038638;28;20476;-58
2023/05/17 14:16:40;;;;;;;10.67;3.70;;;;;;;;;;5028208;28;20530;-58
2023/05/17 14:19:07;;;;;;;6.63;2.90;;;;;;;;;;5005648;28;20459;-58
2023/05/17 14:21:34;;;;;;;12.33;4.13;;;;;;;;;;5020261;28;20536;-58
2023/05/17 14:24:02;;;;;;;7.43;3.40;;;;;;;;;;5039333;28;20961;-59
2023/05/17 14:26:29;;;;;;;13.13;3.67;;;;;;;;;;5018604;28;20479;-58
2023/05/17 14:28:55;;;;;;;11.53;3.40;;;;;;;;;;5006736;28;20447;-58
2023/05/17 14:31:22;;;;;;;11.40;3.60;;;;;;;;;;5021631;28;20475;-58
2023/05/17 14:33:48;;;;;;;11.23;3.83;;;;;;;;;;5011107;28;20455;-58
2023/05/17 14:36:15;;;;;;;7.57;3.30;;;;;;;;;;5022897;28;20493;-58
2023/05/17 14:38:41;;;;;;;6.60;2.83;;;;;;;;;;5045262;28;20453;-59
2023/05/17 14:41:10;;;;;;;8.03;3.60;;;;;;;;;;5032726;28;20520;-59
2023/05/17 14:43:36;;;;;;;9.43;3.80;;;;;;;;;;5037158;28;20536;-59
2023/05/17 14:46:03;;;;;;;10.20;4.20;;;;;;;;;;5030551;28;20541;-62
2023/05/17 14:48:30;;;;;;;7.87;3.10;;;;;;;;;;5041911;28;20456;-58
2023/05/17 14:50:57;;;;;;;12.00;4.03;;;;;;;;;;5040503;28;20473;-60
